Ashwood, Oregon
Current Conditions -  °F | °C
As of 6:35 AM on Thursday 23 Oct 2014 (Local Time) from KS39 Reporting Station
Overcast Overcast  
Wind Chill: 13°   Ceiling: 6000
Heat Index: 13°   Visibility: 10mi
Dew Point:   Wind: 14mph
Humidity: 67%   Direction: 190°S
Pressure: 29.84"   Gusts: 20mph
Location:  44.73°N, 120.76°W
Report Text: KS39 231335Z AUTO 19012G17KT 10SM FEW047 BKN060 OVC075 13/07 A2984 RMK AO2
Loading
Personal Weather Stations






























Interactive Weather Map
Tropical Storm Tracking
New forecast layout! Learn more

10-Day Weather Forecast

Advertisements
Track Severe Weather on mobile